SS Sun — DSMA6 — position and weather

sailwx.info

Track history (hours):
 
Tides and Currents Weather Stations Pressure Air Temp Water Temp Dewpoint Dewpoint Depression Visibility Wind Speed Wind Dir Waves Ship Positions

SS Sun

Last reported at 2017-Sep-24 10:31 UTC. Time now 2017-Oct-19 09:14 UTC.
Position N 34°37' E 134°53'.
Warning: this ship's position is 24 days out of date.

Length 79 m; draft 6.1 m.

Type: Cargo ship. MMSI: 441960000.

Date/timePositionNaut miles runAvg speedWind from/ knotsBaromVisibWave heightAir tempDewpointWater temp
2017-Sep-24 10:31N 34°37' E 134°53'010.5
2017-Sep-24 10:29N 34°37' E 134°54'6 9.4
2017-Sep-24 09:50N 34°37' E 135°01'3 7.7
2017-Sep-24 09:28N 34°36' E 135°04'4 8.2
2017-Sep-24 09:00N 34°35' E 135°09'510.0
2017-Sep-24 08:30N 34°36' E 135°15'5 9.8
2017-Sep-24 08:00N 34°37' E 135°21'5 9.7
2017-Sep-24 07:30N 34°39' E 135°26'1 2.3
2017-Sep-24 06:52N 34°38' E 135°27'0 0.0
2017-Sep-24 06:16N 34°38' E 135°27'0 0.0
2017-Sep-24 05:58N 34°38' E 135°27'0 0.0
2017-Sep-24 05:28N 34°38' E 135°27'0 0.0
2017-Sep-24 04:58N 34°38' E 135°27'0 0.0
2017-Sep-24 04:28N 34°38' E 135°27'0 0.0
2017-Sep-24 01:46N 34°38' E 135°27'0 0.2
2017-Sep-24 01:28N 34°38' E 135°27'0 0.0
2017-Sep-23 23:34N 34°38' E 135°27'0 0.0
2017-Sep-23 23:22N 34°38' E 135°27'0 0.1
2017-Sep-23 22:52N 34°38' E 135°27'1 2.9
2017-Sep-23 22:30N 34°39' E 135°27'3 6.4
2017-Sep-23 22:00N 34°38' E 135°23'1 1.2
2017-Sep-23 21:25N 34°37' E 135°23'0 0.0
2017-Sep-23 20:55N 34°37' E 135°23'0 0.0
2017-Sep-23 20:25N 34°37' E 135°23'0 0.0
2017-Sep-23 19:37N 34°37' E 135°23'  
Track history (hours):
 
Tides and Currents Weather Stations Pressure Air Temp Water Temp Dewpoint Dewpoint Depression Visibility Wind Speed Wind Dir Waves Ship Positions

SS Sun

Last reported at 2017-Sep-24 10:31 UTC. Time now 2017-Oct-19 09:14 UTC.
Position N 34°37' E 134°53'.
Warning: this ship's position is 24 days out of date.

Length 79 m; draft 6.1 m.

Type: Cargo ship. MMSI: 441960000.

Date/timePositionNaut miles runAvg speedWind from/ knotsBaromVisibWave heightAir tempDewpointWater temp
2017-Sep-24 10:31N 34°37' E 134°53'010.5
2017-Sep-24 10:29N 34°37' E 134°54'6 9.4
2017-Sep-24 09:50N 34°37' E 135°01'3 7.7
2017-Sep-24 09:28N 34°36' E 135°04'4 8.2
2017-Sep-24 09:00N 34°35' E 135°09'510.0
2017-Sep-24 08:30N 34°36' E 135°15'5 9.8
2017-Sep-24 08:00N 34°37' E 135°21'5 9.7
2017-Sep-24 07:30N 34°39' E 135°26'1 2.3
2017-Sep-24 06:52N 34°38' E 135°27'0 0.0
2017-Sep-24 06:16N 34°38' E 135°27'0 0.0
2017-Sep-24 05:58N 34°38' E 135°27'0 0.0
2017-Sep-24 05:28N 34°38' E 135°27'0 0.0
2017-Sep-24 04:58N 34°38' E 135°27'0 0.0
2017-Sep-24 04:28N 34°38' E 135°27'0 0.0
2017-Sep-24 01:46N 34°38' E 135°27'0 0.2
2017-Sep-24 01:28N 34°38' E 135°27'0 0.0
2017-Sep-23 23:34N 34°38' E 135°27'0 0.0
2017-Sep-23 23:22N 34°38' E 135°27'0 0.1
2017-Sep-23 22:52N 34°38' E 135°27'1 2.9
2017-Sep-23 22:30N 34°39' E 135°27'3 6.4
2017-Sep-23 22:00N 34°38' E 135°23'1 1.2
2017-Sep-23 21:25N 34°37' E 135°23'0 0.0
2017-Sep-23 20:55N 34°37' E 135°23'0 0.0
2017-Sep-23 20:25N 34°37' E 135°23'0 0.0
2017-Sep-23 19:37N 34°37' E 135°23'  

Dump ship's entire track history